sensor_id;sensor_type;location;lat;lon;timestamp;pressure;altitude;pressure_sealevel;temperature;humidity
2268;BME280;11052;43.338;25.502;2023-03-26T00:01:32;99896.94;;;12.72;100.00
2268;BME280;11052;43.338;25.502;2023-03-26T00:04:02;99889.00;;;12.75;100.00
2268;BME280;11052;43.338;25.502;2023-03-26T00:06:33;99898.63;;;12.73;100.00
2268;BME280;11052;43.338;25.502;2023-03-26T00:09:05;99903.84;;;12.73;100.00
2268;BME280;11052;43.338;25.502;2023-03-26T00:11:34;99912.00;;;12.85;100.00
2268;BME280;11052;43.338;25.502;2023-03-26T00:14:01;99918.53;;;12.74;100.00
2268;BME280;11052;43.338;25.502;2023-03-26T00:16:30;99908.97;;;12.75;100.00
2268;BME280;11052;43.338;25.502;2023-03-26T00:18:59;99897.22;;;12.66;100.00
2268;BME280;11052;43.338;25.502;2023-03-26T00:21:28;99911.13;;;12.65;100.00
2268;BME280;11052;43.338;25.502;2023-03-26T00:24:00;99905.66;;;12.71;100.00
2268;BME280;11052;43.338;25.502;2023-03-26T00:26:29;99914.31;;;12.72;100.00
2268;BME280;11052;43.338;25.502;2023-03-26T00:28:57;99906.78;;;12.66;100.00
2268;BME280;11052;43.338;25.502;2023-03-26T00:31:25;99906.72;;;12.67;100.00
2268;BME280;11052;43.338;25.502;2023-03-26T00:33:52;99905.59;;;12.73;100.00
2268;BME280;11052;43.338;25.502;2023-03-26T00:36:20;99906.50;;;12.72;100.00
2268;BME280;11052;43.338;25.502;2023-03-26T00:38:50;99912.06;;;12.64;100.00
2268;BME280;11052;43.338;25.502;2023-03-26T00:41:20;99913.88;;;12.62;100.00
2268;BME280;11052;43.338;25.502;2023-03-26T00:43:57;99922.59;;;12.61;100.00
2268;BME280;11052;43.338;25.502;2023-03-26T00:46:25;99924.34;;;12.61;100.00
2268;BME280;11052;43.338;25.502;2023-03-26T00:48:53;99930.72;;;12.54;100.00
2268;BME280;11052;43.338;25.502;2023-03-26T00:51:23;99938.53;;;12.54;100.00
2268;BME280;11052;43.338;25.502;2023-03-26T00:53:50;99938.31;;;12.58;100.00
2268;BME280;11052;43.338;25.502;2023-03-26T00:56:19;99946.31;;;12.54;100.00
2268;BME280;11052;43.338;25.502;2023-03-26T00:58:46;99941.31;;;12.49;100.00
2268;BME280;11052;43.338;25.502;2023-03-26T01:01:17;99934.84;;;12.39;100.00
2268;BME280;11052;43.338;25.502;2023-03-26T01:03:45;99945.09;;;12.42;100.00
2268;BME280;11052;43.338;25.502;2023-03-26T01:06:17;99948.75;;;12.38;100.00
2268;BME280;11052;43.338;25.502;2023-03-26T01:08:48;99948.88;;;12.35;100.00
2268;BME280;11052;43.338;25.502;2023-03-26T01:11:20;99947.31;;;12.31;100.00
2268;BME280;11052;43.338;25.502;2023-03-26T01:13:50;99952.44;;;12.32;100.00
2268;BME280;11052;43.338;25.502;2023-03-26T01:16:23;99951.41;;;12.16;100.00
2268;BME280;11052;43.338;25.502;2023-03-26T01:18:51;99952.13;;;12.20;100.00
2268;BME280;11052;43.338;25.502;2023-03-26T01:21:21;99948.75;;;12.18;100.00
2268;BME280;11052;43.338;25.502;2023-03-26T01:23:59;99951.75;;;12.08;100.00
2268;BME280;11052;43.338;25.502;2023-03-26T01:26:34;99957.03;;;12.07;100.00
2268;BME280;11052;43.338;25.502;2023-03-26T01:29:08;99955.41;;;12.04;100.00
2268;BME280;11052;43.338;25.502;2023-03-26T01:31:43;99950.06;;;12.07;100.00
2268;BME280;11052;43.338;25.502;2023-03-26T01:34:18;99956.97;;;12.08;100.00
2268;BME280;11052;43.338;25.502;2023-03-26T01:36:54;99948.50;;;12.03;100.00
2268;BME280;11052;43.338;25.502;2023-03-26T01:39:27;99943.69;;;12.14;100.00
2268;BME280;11052;43.338;25.502;2023-03-26T01:42:01;99952.53;;;12.10;100.00
2268;BME280;11052;43.338;25.502;2023-03-26T01:44:32;99949.28;;;12.05;100.00
2268;BME280;11052;43.338;25.502;2023-03-26T01:47:01;99961.59;;;12.21;100.00
2268;BME280;11052;43.338;25.502;2023-03-26T01:49:29;99952.47;;;12.12;100.00
2268;BME280;11052;43.338;25.502;2023-03-26T01:51:58;99957.38;;;12.18;100.00
2268;BME280;11052;43.338;25.502;2023-03-26T01:54:28;99953.03;;;12.19;100.00
2268;BME280;11052;43.338;25.502;2023-03-26T01:57:06;99956.81;;;12.11;100.00
2268;BME280;11052;43.338;25.502;2023-03-26T01:59:48;99961.75;;;12.18;100.00
2268;BME280;11052;43.338;25.502;2023-03-26T02:02:22;99943.47;;;12.19;100.00
2268;BME280;11052;43.338;25.502;2023-03-26T02:04:58;99950.56;;;12.15;100.00
2268;BME280;11052;43.338;25.502;2023-03-26T02:07:33;99960.69;;;12.22;100.00
2268;BME280;11052;43.338;25.502;2023-03-26T02:10:10;99952.66;;;12.28;100.00
2268;BME280;11052;43.338;25.502;2023-03-26T02:12:39;99950.72;;;12.12;100.00
2268;BME280;11052;43.338;25.502;2023-03-26T02:15:08;99951.47;;;12.14;100.00
2268;BME280;11052;43.338;25.502;2023-03-26T02:17:35;99960.47;;;12.07;100.00
2268;BME280;11052;43.338;25.502;2023-03-26T02:20:05;99964.16;;;12.02;100.00
2268;BME280;11052;43.338;25.502;2023-03-26T02:22:34;99973.13;;;11.95;100.00
2268;BME280;11052;43.338;25.502;2023-03-26T02:25:09;99979.03;;;11.98;100.00
2268;BME280;11052;43.338;25.502;2023-03-26T02:27:37;99981.16;;;11.89;100.00
2268;BME280;11052;43.338;25.502;2023-03-26T02:30:07;99985.50;;;11.88;100.00
2268;BME280;11052;43.338;25.502;2023-03-26T02:32:34;99979.47;;;11.88;100.00
2268;BME280;11052;43.338;25.502;2023-03-26T02:35:04;99978.63;;;11.87;100.00
2268;BME280;11052;43.338;25.502;2023-03-26T02:37:31;99982.00;;;11.89;100.00
2268;BME280;11052;43.338;25.502;2023-03-26T02:39:59;99979.78;;;11.80;100.00
2268;BME280;11052;43.338;25.502;2023-03-26T02:42:28;99984.72;;;11.86;100.00
2268;BME280;11052;43.338;25.502;2023-03-26T02:44:55;100000.38;;;11.85;100.00
2268;BME280;11052;43.338;25.502;2023-03-26T02:47:22;100008.16;;;11.85;100.00
2268;BME280;11052;43.338;25.502;2023-03-26T02:49:49;100005.50;;;11.86;100.00
2268;BME280;11052;43.338;25.502;2023-03-26T02:52:16;100013.16;;;11.89;100.00
2268;BME280;11052;43.338;25.502;2023-03-26T02:54:43;100006.53;;;11.82;100.00
2268;BME280;11052;43.338;25.502;2023-03-26T02:57:10;100003.63;;;11.90;100.00
2268;BME280;11052;43.338;25.502;2023-03-26T02:59:39;100002.25;;;11.81;100.00
2268;BME280;11052;43.338;25.502;2023-03-26T03:02:06;100004.84;;;11.81;100.00
2268;BME280;11052;43.338;25.502;2023-03-26T03:04:33;100012.56;;;11.82;100.00
2268;BME280;11052;43.338;25.502;2023-03-26T03:07:00;100009.66;;;11.90;100.00
2268;BME280;11052;43.338;25.502;2023-03-26T03:09:28;100008.22;;;11.83;100.00
2268;BME280;11052;43.338;25.502;2023-03-26T03:11:55;100003.81;;;11.85;100.00
2268;BME280;11052;43.338;25.502;2023-03-26T03:14:22;100003.81;;;11.85;100.00
2268;BME280;11052;43.338;25.502;2023-03-26T03:16:50;100001.22;;;11.85;100.00
2268;BME280;11052;43.338;25.502;2023-03-26T03:19:18;100003.94;;;11.82;100.00
2268;BME280;11052;43.338;25.502;2023-03-26T03:21:45;100004.09;;;11.77;100.00
2268;BME280;11052;43.338;25.502;2023-03-26T03:24:12;100009.00;;;11.85;100.00
2268;BME280;11052;43.338;25.502;2023-03-26T03:26:43;100008.34;;;11.80;100.00
2268;BME280;11052;43.338;25.502;2023-03-26T03:29:12;100005.16;;;11.72;100.00
2268;BME280;11052;43.338;25.502;2023-03-26T03:31:39;100008.47;;;11.77;100.00
2268;BME280;11052;43.338;25.502;2023-03-26T03:34:07;100008.94;;;11.87;100.00
2268;BME280;11052;43.338;25.502;2023-03-26T03:36:34;100002.19;;;11.82;100.00
2268;BME280;11052;43.338;25.502;2023-03-26T03:39:03;100009.31;;;11.77;100.00
2268;BME280;11052;43.338;25.502;2023-03-26T03:41:30;100004.44;;;11.68;100.00
2268;BME280;11052;43.338;25.502;2023-03-26T03:43:57;100008.78;;;11.68;100.00
2268;BME280;11052;43.338;25.502;2023-03-26T03:46:26;100003.00;;;11.61;100.00
2268;BME280;11052;43.338;25.502;2023-03-26T03:48:53;99996.03;;;11.62;100.00
2268;BME280;11052;43.338;25.502;2023-03-26T03:51:22;100000.56;;;11.57;100.00
2268;BME280;11052;43.338;25.502;2023-03-26T03:53:49;99999.78;;;11.55;100.00
2268;BME280;11052;43.338;25.502;2023-03-26T03:56:17;99998.69;;;11.60;100.00
2268;BME280;11052;43.338;25.502;2023-03-26T03:58:49;100012.63;;;11.58;100.00
2268;BME280;11052;43.338;25.502;2023-03-26T04:01:16;100004.19;;;11.53;100.00
2268;BME280;11052;43.338;25.502;2023-03-26T04:03:47;100005.16;;;11.50;100.00
2268;BME280;11052;43.338;25.502;2023-03-26T04:06:14;99996.56;;;11.48;100.00
2268;BME280;11052;43.338;25.502;2023-03-26T04:08:51;100000.00;;;11.48;100.00
2268;BME280;11052;43.338;25.502;2023-03-26T04:11:18;100006.34;;;11.41;100.00
2268;BME280;11052;43.338;25.502;2023-03-26T04:13:45;100012.03;;;11.51;100.00
2268;BME280;11052;43.338;25.502;2023-03-26T04:16:13;100014.41;;;11.34;100.00
2268;BME280;11052;43.338;25.502;2023-03-26T04:18:42;100013.22;;;11.42;100.00
2268;BME280;11052;43.338;25.502;2023-03-26T04:21:10;100017.81;;;11.36;100.00
2268;BME280;11052;43.338;25.502;2023-03-26T04:23:37;100014.41;;;11.34;100.00
2268;BME280;11052;43.338;25.502;2023-03-26T04:26:07;100012.00;;;11.29;100.00
2268;BME280;11052;43.338;25.502;2023-03-26T04:28:42;100016.13;;;11.35;100.00
2268;BME280;11052;43.338;25.502;2023-03-26T04:31:12;100017.06;;;11.32;100.00
2268;BME280;11052;43.338;25.502;2023-03-26T04:33:43;100013.56;;;11.33;100.00
2268;BME280;11052;43.338;25.502;2023-03-26T04:36:12;100020.00;;;11.25;100.00
2268;BME280;11052;43.338;25.502;2023-03-26T04:38:41;100019.84;;;11.28;100.00
2268;BME280;11052;43.338;25.502;2023-03-26T04:41:12;100029.25;;;11.30;100.00
2268;BME280;11052;43.338;25.502;2023-03-26T04:43:39;100031.84;;;11.30;100.00
2268;BME280;11052;43.338;25.502;2023-03-26T04:46:12;100033.53;;;11.31;100.00
2268;BME280;11052;43.338;25.502;2023-03-26T04:48:39;100027.56;;;11.29;100.00
2268;BME280;11052;43.338;25.502;2023-03-26T04:51:06;100039.75;;;11.27;100.00
2268;BME280;11052;43.338;25.502;2023-03-26T04:53:34;100038.91;;;11.27;100.00
2268;BME280;11052;43.338;25.502;2023-03-26T04:56:05;100028.66;;;11.24;100.00
2268;BME280;11052;43.338;25.502;2023-03-26T04:58:37;100041.38;;;11.30;100.00
2268;BME280;11052;43.338;25.502;2023-03-26T05:01:04;100043.88;;;11.33;100.00
2268;BME280;11052;43.338;25.502;2023-03-26T05:03:32;100048.28;;;11.31;100.00
2268;BME280;11052;43.338;25.502;2023-03-26T05:05:59;100053.50;;;11.29;100.00
2268;BME280;11052;43.338;25.502;2023-03-26T05:08:27;100064.75;;;11.30;100.00
2268;BME280;11052;43.338;25.502;2023-03-26T05:10:55;100072.34;;;11.34;100.00
2268;BME280;11052;43.338;25.502;2023-03-26T05:13:22;100075.19;;;11.28;100.00
2268;BME280;11052;43.338;25.502;2023-03-26T05:15:50;100076.47;;;11.40;100.00
2268;BME280;11052;43.338;25.502;2023-03-26T05:18:18;100087.09;;;11.34;100.00
2268;BME280;11052;43.338;25.502;2023-03-26T05:20:45;100087.09;;;11.34;100.00
2268;BME280;11052;43.338;25.502;2023-03-26T05:23:12;100085.06;;;11.42;100.00
2268;BME280;11052;43.338;25.502;2023-03-26T05:25:39;100090.47;;;11.36;100.00
2268;BME280;11052;43.338;25.502;2023-03-26T05:28:07;100093.91;;;11.36;100.00
2268;BME280;11052;43.338;25.502;2023-03-26T05:30:35;100101.69;;;11.36;100.00
2268;BME280;11052;43.338;25.502;2023-03-26T05:33:04;100092.16;;;11.37;100.00
2268;BME280;11052;43.338;25.502;2023-03-26T05:35:31;100096.41;;;11.39;100.00
2268;BME280;11052;43.338;25.502;2023-03-26T05:37:58;100095.78;;;11.33;100.00
2268;BME280;11052;43.338;25.502;2023-03-26T05:40:25;100085.16;;;11.39;100.00
2268;BME280;11052;43.338;25.502;2023-03-26T05:42:52;100092.84;;;11.42;100.00
2268;BME280;11052;43.338;25.502;2023-03-26T05:45:19;100105.59;;;11.48;100.00
2268;BME280;11052;43.338;25.502;2023-03-26T05:47:47;100098.75;;;11.45;100.00
2268;BME280;11052;43.338;25.502;2023-03-26T05:50:17;100102.25;;;11.44;100.00
2268;BME280;11052;43.338;25.502;2023-03-26T05:52:44;100104.84;;;11.44;100.00
2268;BME280;11052;43.338;25.502;2023-03-26T05:55:11;100105.66;;;11.46;100.00
2268;BME280;11052;43.338;25.502;2023-03-26T05:57:39;100100.06;;;11.80;100.00
2268;BME280;11052;43.338;25.502;2023-03-26T06:00:07;100106.69;;;12.11;100.00
2268;BME280;11052;43.338;25.502;2023-03-26T06:02:36;100099.84;;;12.08;100.00
2268;BME280;11052;43.338;25.502;2023-03-26T06:05:04;100107.03;;;12.02;100.00
2268;BME280;11052;43.338;25.502;2023-03-26T06:07:33;100107.25;;;12.18;100.00
2268;BME280;11052;43.338;25.502;2023-03-26T06:10:00;100118.69;;;12.77;100.00
2268;BME280;11052;43.338;25.502;2023-03-26T06:12:28;100124.41;;;12.86;100.00
2268;BME280;11052;43.338;25.502;2023-03-26T06:14:55;100119.13;;;12.67;100.00
2268;BME280;11052;43.338;25.502;2023-03-26T06:17:22;100112.41;;;12.61;100.00
2268;BME280;11052;43.338;25.502;2023-03-26T06:19:49;100122.16;;;12.56;100.00
2268;BME280;11052;43.338;25.502;2023-03-26T06:22:17;100118.97;;;12.50;100.00
2268;BME280;11052;43.338;25.502;2023-03-26T06:24:45;100115.78;;;12.43;100.00
2268;BME280;11052;43.338;25.502;2023-03-26T06:27:12;100118.50;;;12.40;100.00
2268;BME280;11052;43.338;25.502;2023-03-26T06:29:39;100108.34;;;12.34;100.00
2268;BME280;11052;43.338;25.502;2023-03-26T06:32:07;100101.69;;;12.27;100.00
2268;BME280;11052;43.338;25.502;2023-03-26T06:34:34;100091.38;;;12.25;100.00
2268;BME280;11052;43.338;25.502;2023-03-26T06:37:01;100094.69;;;12.29;100.00
2268;BME280;11052;43.338;25.502;2023-03-26T06:39:28;100093.47;;;12.15;100.00
2268;BME280;11052;43.338;25.502;2023-03-26T06:41:57;100087.94;;;12.03;100.00
2268;BME280;11052;43.338;25.502;2023-03-26T06:44:24;100097.00;;;11.93;100.00
2268;BME280;11052;43.338;25.502;2023-03-26T06:46:51;100091.69;;;11.96;100.00
2268;BME280;11052;43.338;25.502;2023-03-26T06:49:18;100097.38;;;11.84;100.00
2268;BME280;11052;43.338;25.502;2023-03-26T06:51:45;100082.50;;;11.87;100.00
2268;BME280;11052;43.338;25.502;2023-03-26T06:54:12;100092.41;;;11.99;100.00
2268;BME280;11052;43.338;25.502;2023-03-26T06:56:40;100086.41;;;12.19;100.00
2268;BME280;11052;43.338;25.502;2023-03-26T06:59:09;100103.00;;;12.99;100.00
2268;BME280;11052;43.338;25.502;2023-03-26T07:01:36;100103.59;;;13.64;100.00
2268;BME280;11052;43.338;25.502;2023-03-26T07:04:03;100100.16;;;13.82;100.00
2268;BME280;11052;43.338;25.502;2023-03-26T07:06:31;100108.06;;;14.17;100.00
2268;BME280;11052;43.338;25.502;2023-03-26T07:08:58;100114.50;;;14.63;100.00
2268;BME280;11052;43.338;25.502;2023-03-26T07:11:25;100132.56;;;14.67;100.00
2268;BME280;11052;43.338;25.502;2023-03-26T07:13:53;100113.09;;;14.90;100.00
2268;BME280;11052;43.338;25.502;2023-03-26T07:16:22;100115.47;;;14.95;100.00
2268;BME280;11052;43.338;25.502;2023-03-26T07:18:50;100113.00;;;15.09;100.00
2268;BME280;11052;43.338;25.502;2023-03-26T07:21:19;100115.88;;;15.37;100.00
2268;BME280;11052;43.338;25.502;2023-03-26T07:23:47;100110.94;;;15.49;100.00
2268;BME280;11052;43.338;25.502;2023-03-26T07:26:24;100122.69;;;15.73;100.00
2268;BME280;11052;43.338;25.502;2023-03-26T07:28:57;100117.81;;;15.98;100.00
2268;BME280;11052;43.338;25.502;2023-03-26T07:31:29;100117.03;;;16.12;100.00
2268;BME280;11052;43.338;25.502;2023-03-26T07:34:06;100121.50;;;16.26;100.00
2268;BME280;11052;43.338;25.502;2023-03-26T07:36:43;100115.16;;;16.30;100.00
2268;BME280;11052;43.338;25.502;2023-03-26T07:39:20;100120.72;;;16.39;100.00
2268;BME280;11052;43.338;25.502;2023-03-26T07:41:58;100124.78;;;16.59;100.00
2268;BME280;11052;43.338;25.502;2023-03-26T07:44:47;100127.09;;;16.50;100.00
2268;BME280;11052;43.338;25.502;2023-03-26T07:47:22;100130.94;;;16.74;100.00
2268;BME280;11052;43.338;25.502;2023-03-26T07:49:54;100129.25;;;16.73;100.00
2268;BME280;11052;43.338;25.502;2023-03-26T07:52:22;100138.94;;;16.87;100.00
2268;BME280;11052;43.338;25.502;2023-03-26T07:54:50;100141.63;;;16.85;100.00
2268;BME280;11052;43.338;25.502;2023-03-26T07:57:26;100129.69;;;16.95;100.00
2268;BME280;11052;43.338;25.502;2023-03-26T08:00:02;100152.09;;;17.15;100.00
2268;BME280;11052;43.338;25.502;2023-03-26T08:02:56;100150.50;;;17.13;100.00
2268;BME280;11052;43.338;25.502;2023-03-26T08:05:30;100149.75;;;17.39;100.00
2268;BME280;11052;43.338;25.502;2023-03-26T08:08:05;100153.03;;;17.57;94.37
2268;BME280;11052;43.338;25.502;2023-03-26T08:10:39;100160.72;;;17.74;92.39
2268;BME280;11052;43.338;25.502;2023-03-26T08:13:21;100152.84;;;17.60;89.24
2268;BME280;11052;43.338;25.502;2023-03-26T08:15:52;100154.84;;;17.71;90.84
2268;BME280;11052;43.338;25.502;2023-03-26T08:18:34;100147.47;;;18.04;93.68
2268;BME280;11052;43.338;25.502;2023-03-26T08:21:08;100164.53;;;18.11;87.80
2268;BME280;11052;43.338;25.502;2023-03-26T08:23:45;100155.34;;;18.04;83.30
2268;BME280;11052;43.338;25.502;2023-03-26T08:26:16;100155.53;;;18.01;84.04
2268;BME280;11052;43.338;25.502;2023-03-26T08:28:57;100144.22;;;18.00;83.43
2268;BME280;11052;43.338;25.502;2023-03-26T08:31:31;100154.47;;;18.18;83.23
2268;BME280;11052;43.338;25.502;2023-03-26T08:34:01;100150.19;;;18.17;80.86
2268;BME280;11052;43.338;25.502;2023-03-26T08:36:28;100150.38;;;18.14;81.05
2268;BME280;11052;43.338;25.502;2023-03-26T08:38:55;100149.25;;;18.30;82.18
2268;BME280;11052;43.338;25.502;2023-03-26T08:41:53;100159.75;;;18.30;80.39
2268;BME280;11052;43.338;25.502;2023-03-26T08:50:58;100152.50;;;18.75;79.99
2268;BME280;11052;43.338;25.502;2023-03-26T08:53:59;100146.41;;;18.75;80.36
2268;BME280;11052;43.338;25.502;2023-03-26T08:56:38;100142.44;;;19.07;79.32
2268;BME280;11052;43.338;25.502;2023-03-26T08:59:47;100135.06;;;18.87;75.60
2268;BME280;11052;43.338;25.502;2023-03-26T09:05:44;100141.81;;;19.04;76.14
2268;BME280;11052;43.338;25.502;2023-03-26T09:14:50;100128.97;;;19.37;76.59
2268;BME280;11052;43.338;25.502;2023-03-26T09:20:51;100125.19;;;19.16;73.93
2268;BME280;11052;43.338;25.502;2023-03-26T09:23:52;100117.41;;;19.40;75.92
2268;BME280;11052;43.338;25.502;2023-03-26T09:26:25;100121.84;;;19.26;74.12
2268;BME280;11052;43.338;25.502;2023-03-26T09:35:49;100109.75;;;19.62;68.76
2268;BME280;11052;43.338;25.502;2023-03-26T09:38:34;100108.28;;;19.58;69.83
2268;BME280;11052;43.338;25.502;2023-03-26T09:41:13;100105.97;;;19.53;66.50
2268;BME280;11052;43.338;25.502;2023-03-26T09:49:58;100093.13;;;19.61;67.63
2268;BME280;11052;43.338;25.502;2023-03-26T09:52:59;100088.66;;;19.75;70.75
2268;BME280;11052;43.338;25.502;2023-03-26T09:55:48;100078.47;;;19.70;68.45
2268;BME280;11052;43.338;25.502;2023-03-26T09:58:46;100088.88;;;19.72;65.93
2268;BME280;11052;43.338;25.502;2023-03-26T10:01:24;100084.06;;;19.66;65.87
2268;BME280;11052;43.338;25.502;2023-03-26T10:04:01;100057.47;;;19.57;64.25
2268;BME280;11052;43.338;25.502;2023-03-26T10:06:45;100065.53;;;19.67;62.21
2268;BME280;11052;43.338;25.502;2023-03-26T10:09:39;100060.75;;;19.85;65.12
2268;BME280;11052;43.338;25.502;2023-03-26T10:12:22;100058.53;;;19.91;61.96
2268;BME280;11052;43.338;25.502;2023-03-26T10:15:02;100051.84;;;19.98;62.70
2268;BME280;11052;43.338;25.502;2023-03-26T10:17:42;100049.75;;;20.15;63.93
2268;BME280;11052;43.338;25.502;2023-03-26T10:20:47;100054.47;;;19.98;59.48
2268;BME280;11052;43.338;25.502;2023-03-26T10:23:55;100049.09;;;19.76;61.91
2268;BME280;11052;43.338;25.502;2023-03-26T10:26:36;100056.19;;;20.11;63.11
2268;BME280;11052;43.338;25.502;2023-03-26T10:29:31;100053.28;;;20.03;58.54
2268;BME280;11052;43.338;25.502;2023-03-26T10:32:12;100051.66;;;20.13;60.48
2268;BME280;11052;43.338;25.502;2023-03-26T10:34:49;100051.38;;;20.05;59.34
2268;BME280;11052;43.338;25.502;2023-03-26T10:37:28;100041.63;;;19.94;58.02
2268;BME280;11052;43.338;25.502;2023-03-26T10:40:14;100040.75;;;20.06;58.61
2268;BME280;11052;43.338;25.502;2023-03-26T10:42:58;100041.09;;;20.02;55.29
2268;BME280;11052;43.338;25.502;2023-03-26T10:45:50;100046.22;;;20.03;58.96
2268;BME280;11052;43.338;25.502;2023-03-26T10:51:40;100034.50;;;20.31;55.78
2268;BME280;11052;43.338;25.502;2023-03-26T10:54:29;100027.19;;;20.47;56.51
2268;BME280;11052;43.338;25.502;2023-03-26T10:57:05;100031.66;;;20.34;55.12
2268;BME280;11052;43.338;25.502;2023-03-26T10:59:37;100014.78;;;20.37;57.57
2268;BME280;11052;43.338;25.502;2023-03-26T11:02:20;100019.28;;;20.47;55.93
2268;BME280;11052;43.338;25.502;2023-03-26T11:04:54;100015.84;;;20.58;55.02
2268;BME280;11052;43.338;25.502;2023-03-26T11:07:28;100009.38;;;20.62;55.30
2268;BME280;11052;43.338;25.502;2023-03-26T11:10:03;100010.22;;;20.85;60.24
2268;BME280;11052;43.338;25.502;2023-03-26T11:12:38;100004.22;;;20.60;54.31
2268;BME280;11052;43.338;25.502;2023-03-26T11:15:19;99997.50;;;20.21;54.41
2268;BME280;11052;43.338;25.502;2023-03-26T11:17:57;100001.00;;;20.33;58.11
2268;BME280;11052;43.338;25.502;2023-03-26T11:20:36;99998.69;;;20.52;55.97
2268;BME280;11052;43.338;25.502;2023-03-26T11:23:18;99993.22;;;20.78;56.45
2268;BME280;11052;43.338;25.502;2023-03-26T11:26:01;99988.09;;;20.76;55.09
2268;BME280;11052;43.338;25.502;2023-03-26T11:28:43;99975.72;;;20.54;52.62
2268;BME280;11052;43.338;25.502;2023-03-26T11:31:21;99993.34;;;20.30;53.77
2268;BME280;11052;43.338;25.502;2023-03-26T11:33:53;99981.03;;;20.30;54.84
2268;BME280;11052;43.338;25.502;2023-03-26T11:36:25;99976.25;;;19.89;52.13
2268;BME280;11052;43.338;25.502;2023-03-26T11:38:58;99971.66;;;19.80;53.90
2268;BME280;11052;43.338;25.502;2023-03-26T11:41:27;99968.63;;;19.37;53.20
2268;BME280;11052;43.338;25.502;2023-03-26T11:44:00;99966.97;;;19.23;53.27
2268;BME280;11052;43.338;25.502;2023-03-26T11:46:30;99971.88;;;19.53;52.27
2268;BME280;11052;43.338;25.502;2023-03-26T11:48:59;99964.16;;;19.63;54.18
2268;BME280;11052;43.338;25.502;2023-03-26T11:51:30;99968.91;;;19.58;53.66
2268;BME280;11052;43.338;25.502;2023-03-26T11:53:58;99976.13;;;19.67;53.34
2268;BME280;11052;43.338;25.502;2023-03-26T11:56:28;99963.47;;;19.72;52.86
2268;BME280;11052;43.338;25.502;2023-03-26T11:59:01;99952.50;;;19.78;53.75
2268;BME280;11052;43.338;25.502;2023-03-26T12:01:41;99940.94;;;19.81;53.82
2268;BME280;11052;43.338;25.502;2023-03-26T12:04:10;99942.75;;;19.91;56.08
2268;BME280;11052;43.338;25.502;2023-03-26T12:06:38;99938.44;;;19.90;55.02
2268;BME280;11052;43.338;25.502;2023-03-26T12:09:15;99938.19;;;19.93;53.84
2268;BME280;11052;43.338;25.502;2023-03-26T12:11:42;99928.66;;;20.04;54.79
2268;BME280;11052;43.338;25.502;2023-03-26T12:14:16;99925.41;;;20.00;52.31
2268;BME280;11052;43.338;25.502;2023-03-26T12:17:02;99910.66;;;19.75;49.68
2268;BME280;11052;43.338;25.502;2023-03-26T12:19:38;99915.69;;;19.54;49.25
2268;BME280;11052;43.338;25.502;2023-03-26T12:22:26;99905.84;;;19.69;49.62
2268;BME280;11052;43.338;25.502;2023-03-26T12:25:08;99902.41;;;19.80;48.10
2268;BME280;11052;43.338;25.502;2023-03-26T12:27:42;99908.78;;;20.00;50.97
2268;BME280;11052;43.338;25.502;2023-03-26T12:30:19;99907.72;;;20.02;47.30
2268;BME280;11052;43.338;25.502;2023-03-26T12:32:48;99899.81;;;19.91;48.29
2268;BME280;11052;43.338;25.502;2023-03-26T12:35:17;99904.72;;;19.84;47.36
2268;BME280;11052;43.338;25.502;2023-03-26T12:37:46;99907.34;;;19.84;46.54
2268;BME280;11052;43.338;25.502;2023-03-26T12:40:29;99903.47;;;19.77;47.38
2268;BME280;11052;43.338;25.502;2023-03-26T12:42:58;99894.94;;;19.62;48.07
2268;BME280;11052;43.338;25.502;2023-03-26T12:45:30;99896.50;;;19.65;47.71
2268;BME280;11052;43.338;25.502;2023-03-26T12:47:58;99893.41;;;19.71;46.79
2268;BME280;11052;43.338;25.502;2023-03-26T12:50:31;99901.75;;;19.65;48.93
2268;BME280;11052;43.338;25.502;2023-03-26T12:53:15;99897.47;;;19.64;49.88
2268;BME280;11052;43.338;25.502;2023-03-26T12:55:53;99897.03;;;19.81;48.28
2268;BME280;11052;43.338;25.502;2023-03-26T12:58:59;99897.38;;;19.77;48.12
2268;BME280;11052;43.338;25.502;2023-03-26T13:01:42;99905.44;;;19.86;48.46
2268;BME280;11052;43.338;25.502;2023-03-26T13:07:16;99908.97;;;19.74;45.35
2268;BME280;11052;43.338;25.502;2023-03-26T13:10:04;99907.28;;;19.73;45.16
2268;BME280;11052;43.338;25.502;2023-03-26T13:12:39;99895.31;;;19.69;46.17
2268;BME280;11052;43.338;25.502;2023-03-26T13:15:22;99891.97;;;19.67;45.86
2268;BME280;11052;43.338;25.502;2023-03-26T13:18:03;99898.03;;;19.44;45.62
2268;BME280;11052;43.338;25.502;2023-03-26T13:20:46;99894.97;;;19.26;44.81
2268;BME280;11052;43.338;25.502;2023-03-26T13:23:22;99888.88;;;19.49;45.60
2268;BME280;11052;43.338;25.502;2023-03-26T13:25:56;99882.00;;;19.36;43.68
2268;BME280;11052;43.338;25.502;2023-03-26T13:28:32;99878.31;;;19.38;44.41
2268;BME280;11052;43.338;25.502;2023-03-26T13:31:07;99877.19;;;19.29;46.04
2268;BME280;11052;43.338;25.502;2023-03-26T13:33:48;99879.03;;;19.40;46.96
2268;BME280;11052;43.338;25.502;2023-03-26T13:36:19;99879.03;;;19.40;47.55
2268;BME280;11052;43.338;25.502;2023-03-26T13:38:57;99889.16;;;19.33;47.22
2268;BME280;11052;43.338;25.502;2023-03-26T13:41:37;99892.03;;;19.18;46.33
2268;BME280;11052;43.338;25.502;2023-03-26T13:44:12;99888.91;;;19.13;42.62
2268;BME280;11052;43.338;25.502;2023-03-26T13:46:46;99896.88;;;19.00;42.85
2268;BME280;11052;43.338;25.502;2023-03-26T13:49:29;99895.41;;;18.96;43.39
2268;BME280;11052;43.338;25.502;2023-03-26T13:52:05;99904.75;;;19.00;42.78
2268;BME280;11052;43.338;25.502;2023-03-26T13:54:38;99892.03;;;18.94;43.95
2268;BME280;11052;43.338;25.502;2023-03-26T13:57:13;99899.81;;;18.95;43.64